Aeroporto :
LOGIN :

Iscrizione | Disclaimer

   EN    FR    IT 

 










Sommario :    VFR   VFR Marginale   IFR   IFR Intensivo   IFR Molto Intensivo
Visibilità : 
Base nubi : 
>= 8 km
>= 3000ft
5 / 8 km
1000 / 3000 ft
1500m / 5 km
500 / 1000 ft
800 / 1500m
200 / 500 ft
< 800m
< 200 ft
Simboli :   Temporali  Nebbia  Neve Forte  Precipitazioni Forti  Vento > 20 kt
SIGMETs :   Varie  Temporali  Ghiacco  Turbolenza  Onda orograficha  Ceneri Vulcaniche






- Altitudine del aeroporto : 37 ft


EHVL - Vlieland Heliport

ULTIMO METAR :
  • 221000Z AUTO 35006KT 9000 BR FEW007 OVC008 08/07 Q1036 GRN

METARs OBSOLETI :
  • 220936Z AUTO 35006KT 4900 BR BKN008 OVC009 08/07 Q1036 GRN
  • 220925Z AUTO 35004KT 5000 BR FEW008 OVC009 08/08 Q1036 GRN
  • 220900Z AUTO 34003KT 3100 BR FEW002 SCT006 OVC008 08/08 Q1036 YLO
  • 220855Z AUTO 34004KT 2900 BR FEW002 SCT006 OVC008 08/08 Q1036 YLO
  • 220825Z AUTO 34008KT 2900 BR FEW001 SCT004 BKN009 07/07 Q1036 YLO
  • 220813Z AUTO 33007KT 2500 BR SCT001 SCT003 BKN006 07/07 Q1035 RED
  • 220756Z AUTO 33009KT 2200 BR FEW001 SCT003 OVC004 07/07 Q1035 YLO
  • 220755Z AUTO 32009KT 2200 BR SCT001 BKN005 OVC006 07/07 Q1035 RED
  • 220740Z AUTO 32009KT 2000 BR SCT001 SCT003 BKN004 07/07 Q1035 RED
  • 220725Z AUTO 32011KT 2100 BR BKN002 OVC003 07/07 Q1035 AMB

Previsioni scadute.



MetMap, La meteo Aeronautica in un colpo d'occhio ! - Copyright ORBIFLY Dicembre 2007 - Disclaimer

ORBIFLY MET'MAP TEAM :

Programmazione e sviluppo : Alexandra Zaïnal
Concezione : Baudouin d'Aumeries
Aiuto per la programmazione : Marc-Olivier Méhu
Supporto tecnico e logistico : Manuel Goepfert
Aiuto per la traduzione : Arnaldo La Scala

Contatto : metmap@orbifly.com




FONTI E CREDITI :

   NOAA